sensor_id;sensor_type;location;lat;lon;timestamp;temperature;humidity
67799;SHT30;54596;43.216;27.904;2022-07-17T00:00:01;23.02;78.60
67799;SHT30;54596;43.216;27.904;2022-07-17T00:02:27;22.92;78.87
67799;SHT30;54596;43.216;27.904;2022-07-17T00:04:53;22.89;79.01
67799;SHT30;54596;43.216;27.904;2022-07-17T00:07:18;22.84;79.21
67799;SHT30;54596;43.216;27.904;2022-07-17T00:09:44;22.84;79.30
67799;SHT30;54596;43.216;27.904;2022-07-17T00:12:09;22.79;79.41
67799;SHT30;54596;43.216;27.904;2022-07-17T00:14:35;22.76;79.36
67799;SHT30;54596;43.216;27.904;2022-07-17T00:17:01;22.76;79.21
67799;SHT30;54596;43.216;27.904;2022-07-17T00:19:27;22.75;79.37
67799;SHT30;54596;43.216;27.904;2022-07-17T00:21:52;22.81;79.30
67799;SHT30;54596;43.216;27.904;2022-07-17T00:24:18;22.79;79.44
67799;SHT30;54596;43.216;27.904;2022-07-17T00:26:47;22.81;79.73
67799;SHT30;54596;43.216;27.904;2022-07-17T00:29:13;22.76;79.86
67799;SHT30;54596;43.216;27.904;2022-07-17T00:31:39;22.72;79.86
67799;SHT30;54596;43.216;27.904;2022-07-17T00:34:04;22.68;80.23
67799;SHT30;54596;43.216;27.904;2022-07-17T00:36:30;22.62;80.32
67799;SHT30;54596;43.216;27.904;2022-07-17T00:38:55;22.67;80.13
67799;SHT30;54596;43.216;27.904;2022-07-17T00:41:21;22.58;80.33
67799;SHT30;54596;43.216;27.904;2022-07-17T00:43:47;22.51;80.51
67799;SHT30;54596;43.216;27.904;2022-07-17T00:46:12;22.53;80.24
67799;SHT30;54596;43.216;27.904;2022-07-17T00:48:38;22.58;80.05
67799;SHT30;54596;43.216;27.904;2022-07-17T00:51:03;22.53;80.01
67799;SHT30;54596;43.216;27.904;2022-07-17T00:53:31;22.47;80.13
67799;SHT30;54596;43.216;27.904;2022-07-17T00:56:01;22.47;79.92
67799;SHT30;54596;43.216;27.904;2022-07-17T00:58:28;22.43;79.92
67799;SHT30;54596;43.216;27.904;2022-07-17T01:00:55;22.44;79.88
67799;SHT30;54596;43.216;27.904;2022-07-17T01:03:23;22.48;79.71
67799;SHT30;54596;43.216;27.904;2022-07-17T01:05:48;22.51;79.55
67799;SHT30;54596;43.216;27.904;2022-07-17T01:08:14;22.53;79.55
67799;SHT30;54596;43.216;27.904;2022-07-17T01:10:40;22.53;79.37
67799;SHT30;54596;43.216;27.904;2022-07-17T01:13:06;22.47;79.53
67799;SHT30;54596;43.216;27.904;2022-07-17T01:15:32;22.47;79.38
67799;SHT30;54596;43.216;27.904;2022-07-17T01:17:59;22.41;79.24
67799;SHT30;54596;43.216;27.904;2022-07-17T01:20:24;22.43;79.01
67799;SHT30;54596;43.216;27.904;2022-07-17T01:22:51;22.39;78.94
67799;SHT30;54596;43.216;27.904;2022-07-17T01:25:20;22.34;79.05
67799;SHT30;54596;43.216;27.904;2022-07-17T01:27:45;22.29;79.15
67799;SHT30;54596;43.216;27.904;2022-07-17T01:30:11;22.32;78.97
67799;SHT30;54596;43.216;27.904;2022-07-17T01:32:38;22.30;78.95
67799;SHT30;54596;43.216;27.904;2022-07-17T01:35:05;22.23;79.27
67799;SHT30;54596;43.216;27.904;2022-07-17T01:37:31;22.24;79.03
67799;SHT30;54596;43.216;27.904;2022-07-17T01:39:57;22.21;78.51
67799;SHT30;54596;43.216;27.904;2022-07-17T01:42:23;22.23;78.01
67799;SHT30;54596;43.216;27.904;2022-07-17T01:44:50;22.21;77.93
67799;SHT30;54596;43.216;27.904;2022-07-17T01:47:16;22.26;77.51
67799;SHT30;54596;43.216;27.904;2022-07-17T01:49:50;22.21;77.38
67799;SHT30;54596;43.216;27.904;2022-07-17T01:52:16;22.20;77.49
67799;SHT30;54596;43.216;27.904;2022-07-17T01:54:42;22.16;77.58
67799;SHT30;54596;43.216;27.904;2022-07-17T01:57:08;22.13;77.21
67799;SHT30;54596;43.216;27.904;2022-07-17T01:59:34;22.19;76.94
67799;SHT30;54596;43.216;27.904;2022-07-17T02:02:00;22.21;76.68
67799;SHT30;54596;43.216;27.904;2022-07-17T02:04:26;22.23;76.53
67799;SHT30;54596;43.216;27.904;2022-07-17T02:06:54;22.26;76.30
67799;SHT30;54596;43.216;27.904;2022-07-17T02:09:21;22.24;76.25
67799;SHT30;54596;43.216;27.904;2022-07-17T02:11:47;22.21;76.20
67799;SHT30;54596;43.216;27.904;2022-07-17T02:14:12;22.19;76.20
67799;SHT30;54596;43.216;27.904;2022-07-17T02:16:38;22.10;76.11
67799;SHT30;54596;43.216;27.904;2022-07-17T02:19:03;22.10;76.13
67799;SHT30;54596;43.216;27.904;2022-07-17T02:21:29;22.00;76.49
67799;SHT30;54596;43.216;27.904;2022-07-17T02:23:54;21.96;76.47
67799;SHT30;54596;43.216;27.904;2022-07-17T02:26:20;21.96;76.55
67799;SHT30;54596;43.216;27.904;2022-07-17T02:28:45;21.93;76.52
67799;SHT30;54596;43.216;27.904;2022-07-17T02:31:11;21.88;76.56
67799;SHT30;54596;43.216;27.904;2022-07-17T02:33:36;21.84;76.59
67799;SHT30;54596;43.216;27.904;2022-07-17T02:36:02;21.75;76.87
67799;SHT30;54596;43.216;27.904;2022-07-17T02:38:28;21.77;76.89
67799;SHT30;54596;43.216;27.904;2022-07-17T02:40:53;21.74;77.14
67799;SHT30;54596;43.216;27.904;2022-07-17T02:43:19;21.73;77.24
67799;SHT30;54596;43.216;27.904;2022-07-17T02:45:44;21.68;77.50
67799;SHT30;54596;43.216;27.904;2022-07-17T02:48:10;21.65;77.73
67799;SHT30;54596;43.216;27.904;2022-07-17T02:50:35;21.75;77.38
67799;SHT30;54596;43.216;27.904;2022-07-17T02:53:01;21.69;77.45
67799;SHT30;54596;43.216;27.904;2022-07-17T02:55:27;21.69;77.40
67799;SHT30;54596;43.216;27.904;2022-07-17T02:57:52;21.67;77.54
67799;SHT30;54596;43.216;27.904;2022-07-17T03:00:18;21.64;77.52
67799;SHT30;54596;43.216;27.904;2022-07-17T03:02:46;21.61;77.60
67799;SHT30;54596;43.216;27.904;2022-07-17T03:05:14;21.58;77.76
67799;SHT30;54596;43.216;27.904;2022-07-17T03:07:40;21.51;77.86
67799;SHT30;54596;43.216;27.904;2022-07-17T03:10:06;21.50;77.65
67799;SHT30;54596;43.216;27.904;2022-07-17T03:12:33;21.54;77.37
67799;SHT30;54596;43.216;27.904;2022-07-17T03:14:58;21.53;77.34
67799;SHT30;54596;43.216;27.904;2022-07-17T03:17:24;21.65;76.56
67799;SHT30;54596;43.216;27.904;2022-07-17T03:19:49;21.68;76.31
67799;SHT30;54596;43.216;27.904;2022-07-17T03:22:15;21.68;75.45
67799;SHT30;54596;43.216;27.904;2022-07-17T03:24:41;21.62;75.73
67799;SHT30;54596;43.216;27.904;2022-07-17T03:27:06;21.62;75.71
67799;SHT30;54596;43.216;27.904;2022-07-17T03:29:32;21.64;75.48
67799;SHT30;54596;43.216;27.904;2022-07-17T03:31:57;21.65;75.38
67799;SHT30;54596;43.216;27.904;2022-07-17T03:34:23;21.82;74.87
67799;SHT30;54596;43.216;27.904;2022-07-17T03:36:48;21.81;74.95
67799;SHT30;54596;43.216;27.904;2022-07-17T03:39:14;21.93;74.30
67799;SHT30;54596;43.216;27.904;2022-07-17T03:41:40;22.02;74.14
67799;SHT30;54596;43.216;27.904;2022-07-17T03:44:05;22.06;74.13
67799;SHT30;54596;43.216;27.904;2022-07-17T03:46:31;22.20;74.00
67799;SHT30;54596;43.216;27.904;2022-07-17T03:48:56;22.23;73.77
67799;SHT30;54596;43.216;27.904;2022-07-17T03:51:22;22.32;73.67
67799;SHT30;54596;43.216;27.904;2022-07-17T03:53:47;22.30;73.88
67799;SHT30;54596;43.216;27.904;2022-07-17T03:56:13;22.39;73.47
67799;SHT30;54596;43.216;27.904;2022-07-17T03:58:39;22.64;72.30
67799;SHT30;54596;43.216;27.904;2022-07-17T04:01:04;23.02;70.93
67799;SHT30;54596;43.216;27.904;2022-07-17T04:03:30;22.96;71.20
67799;SHT30;54596;43.216;27.904;2022-07-17T04:05:55;22.84;71.44
67799;SHT30;54596;43.216;27.904;2022-07-17T04:08:21;22.82;71.53
67799;SHT30;54596;43.216;27.904;2022-07-17T04:10:46;22.89;70.94
67799;SHT30;54596;43.216;27.904;2022-07-17T04:13:12;22.98;70.77
67799;SHT30;54596;43.216;27.904;2022-07-17T04:15:37;23.00;70.25
67799;SHT30;54596;43.216;27.904;2022-07-17T04:18:16;23.07;69.54
67799;SHT30;54596;43.216;27.904;2022-07-17T04:20:41;23.15;69.24
67799;SHT30;54596;43.216;27.904;2022-07-17T04:23:07;23.24;68.98
67799;SHT30;54596;43.216;27.904;2022-07-17T04:25:32;23.37;69.03
67799;SHT30;54596;43.216;27.904;2022-07-17T04:27:58;23.43;68.69
67799;SHT30;54596;43.216;27.904;2022-07-17T04:30:23;23.54;67.95
67799;SHT30;54596;43.216;27.904;2022-07-17T04:32:49;23.58;66.85
67799;SHT30;54596;43.216;27.904;2022-07-17T04:35:14;23.64;66.88
67799;SHT30;54596;43.216;27.904;2022-07-17T04:37:40;23.72;67.02
67799;SHT30;54596;43.216;27.904;2022-07-17T04:40:06;23.74;67.52
67799;SHT30;54596;43.216;27.904;2022-07-17T04:42:32;23.85;67.85
67799;SHT30;54596;43.216;27.904;2022-07-17T04:44:58;23.95;68.12
67799;SHT30;54596;43.216;27.904;2022-07-17T04:47:23;24.01;68.09
67799;SHT30;54596;43.216;27.904;2022-07-17T04:49:49;24.06;68.24
67799;SHT30;54596;43.216;27.904;2022-07-17T04:52:15;24.14;68.32
67799;SHT30;54596;43.216;27.904;2022-07-17T04:54:40;24.21;67.95
67799;SHT30;54596;43.216;27.904;2022-07-17T04:57:05;24.29;67.28
67799;SHT30;54596;43.216;27.904;2022-07-17T04:59:31;24.44;66.44
67799;SHT30;54596;43.216;27.904;2022-07-17T05:01:57;24.61;65.91
67799;SHT30;54596;43.216;27.904;2022-07-17T05:04:22;24.72;64.76
67799;SHT30;54596;43.216;27.904;2022-07-17T05:06:48;24.83;64.56
67799;SHT30;54596;43.216;27.904;2022-07-17T05:09:13;24.93;63.76
67799;SHT30;54596;43.216;27.904;2022-07-17T05:11:39;25.07;63.14
67799;SHT30;54596;43.216;27.904;2022-07-17T05:14:05;25.23;62.55
67799;SHT30;54596;43.216;27.904;2022-07-17T05:16:30;25.44;61.25
67799;SHT30;54596;43.216;27.904;2022-07-17T05:18:56;25.74;60.25
67799;SHT30;54596;43.216;27.904;2022-07-17T05:21:21;25.99;58.88
67799;SHT30;54596;43.216;27.904;2022-07-17T05:23:47;26.16;58.12
67799;SHT30;54596;43.216;27.904;2022-07-17T05:26:12;26.33;56.74
67799;SHT30;54596;43.216;27.904;2022-07-17T05:28:38;26.64;55.78
67799;SHT30;54596;43.216;27.904;2022-07-17T05:31:03;27.11;53.84
67799;SHT30;54596;43.216;27.904;2022-07-17T05:33:29;28.07;51.65
67799;SHT30;54596;43.216;27.904;2022-07-17T05:35:54;29.39;49.25
67799;SHT30;54596;43.216;27.904;2022-07-17T05:38:20;31.09;44.64
67799;SHT30;54596;43.216;27.904;2022-07-17T05:40:45;33.62;40.38
67799;SHT30;54596;43.216;27.904;2022-07-17T05:43:11;35.03;37.69
67799;SHT30;54596;43.216;27.904;2022-07-17T05:45:36;36.02;35.78
67799;SHT30;54596;43.216;27.904;2022-07-17T05:48:05;37.30;33.66
67799;SHT30;54596;43.216;27.904;2022-07-17T05:50:31;37.81;33.16
67799;SHT30;54596;43.216;27.904;2022-07-17T05:52:57;37.92;32.92
67799;SHT30;54596;43.216;27.904;2022-07-17T05:55:22;39.06;31.43
67799;SHT30;54596;43.216;27.904;2022-07-17T05:57:48;38.85;31.07
67799;SHT30;54596;43.216;27.904;2022-07-17T06:00:13;38.88;31.17
67799;SHT30;54596;43.216;27.904;2022-07-17T06:02:39;39.15;30.78
67799;SHT30;54596;43.216;27.904;2022-07-17T06:05:05;39.02;30.61
67799;SHT30;54596;43.216;27.904;2022-07-17T06:07:30;39.35;30.35
67799;SHT30;54596;43.216;27.904;2022-07-17T06:09:56;40.09;29.22
67799;SHT30;54596;43.216;27.904;2022-07-17T06:12:21;40.04;29.00
67799;SHT30;54596;43.216;27.904;2022-07-17T06:14:47;40.13;28.77
67799;SHT30;54596;43.216;27.904;2022-07-17T06:17:12;39.91;29.11
67799;SHT30;54596;43.216;27.904;2022-07-17T06:19:39;39.43;29.44
67799;SHT30;54596;43.216;27.904;2022-07-17T06:22:04;39.45;29.35
67799;SHT30;54596;43.216;27.904;2022-07-17T06:24:30;39.57;29.39
67799;SHT30;54596;43.216;27.904;2022-07-17T06:26:55;39.20;29.57
67799;SHT30;54596;43.216;27.904;2022-07-17T06:29:20;39.42;29.70
67799;SHT30;54596;43.216;27.904;2022-07-17T06:31:46;40.02;28.63
67799;SHT30;54596;43.216;27.904;2022-07-17T06:34:11;40.66;28.10
67799;SHT30;54596;43.216;27.904;2022-07-17T06:36:37;39.99;27.32
67799;SHT30;54596;43.216;27.904;2022-07-17T06:39:03;40.29;27.31
67799;SHT30;54596;43.216;27.904;2022-07-17T06:41:28;40.44;26.90
67799;SHT30;54596;43.216;27.904;2022-07-17T06:43:53;41.45;26.45
67799;SHT30;54596;43.216;27.904;2022-07-17T06:46:19;41.73;26.18
67799;SHT30;54596;43.216;27.904;2022-07-17T06:48:44;42.66;25.08
67799;SHT30;54596;43.216;27.904;2022-07-17T06:51:10;43.40;24.78
67799;SHT30;54596;43.216;27.904;2022-07-17T06:53:35;44.15;23.90
67799;SHT30;54596;43.216;27.904;2022-07-17T06:56:01;43.12;23.42
67799;SHT30;54596;43.216;27.904;2022-07-17T06:58:26;43.58;23.35
67799;SHT30;54596;43.216;27.904;2022-07-17T07:00:52;43.18;23.11
67799;SHT30;54596;43.216;27.904;2022-07-17T07:03:17;42.29;23.86
67799;SHT30;54596;43.216;27.904;2022-07-17T07:05:43;42.99;23.38
67799;SHT30;54596;43.216;27.904;2022-07-17T07:08:09;42.50;22.46
67799;SHT30;54596;43.216;27.904;2022-07-17T07:10:34;42.96;22.78
67799;SHT30;54596;43.216;27.904;2022-07-17T07:13:00;43.05;22.81
67799;SHT30;54596;43.216;27.904;2022-07-17T07:15:25;43.50;22.28
67799;SHT30;54596;43.216;27.904;2022-07-17T07:17:51;43.29;21.67
67799;SHT30;54596;43.216;27.904;2022-07-17T07:20:16;42.49;21.80
67799;SHT30;54596;43.216;27.904;2022-07-17T07:22:42;43.12;21.42
67799;SHT30;54596;43.216;27.904;2022-07-17T07:25:08;42.15;21.70
67799;SHT30;54596;43.216;27.904;2022-07-17T07:27:34;43.18;21.24
67799;SHT30;54596;43.216;27.904;2022-07-17T07:29:59;41.91;21.78
67799;SHT30;54596;43.216;27.904;2022-07-17T07:32:25;41.26;21.86
67799;SHT30;54596;43.216;27.904;2022-07-17T07:34:50;42.08;21.06
67799;SHT30;54596;43.216;27.904;2022-07-17T07:37:16;41.08;21.09
67799;SHT30;54596;43.216;27.904;2022-07-17T07:39:41;41.11;21.24
67799;SHT30;54596;43.216;27.904;2022-07-17T07:42:07;38.70;23.46
67799;SHT30;54596;43.216;27.904;2022-07-17T07:44:32;35.82;26.54
67799;SHT30;54596;43.216;27.904;2022-07-17T07:46:58;35.31;27.48
67799;SHT30;54596;43.216;27.904;2022-07-17T07:49:24;36.06;27.19
67799;SHT30;54596;43.216;27.904;2022-07-17T07:51:50;35.80;26.29
67799;SHT30;54596;43.216;27.904;2022-07-17T07:54:15;35.43;26.95
67799;SHT30;54596;43.216;27.904;2022-07-17T07:56:41;34.45;27.92
67799;SHT30;54596;43.216;27.904;2022-07-17T07:59:08;34.89;28.25
67799;SHT30;54596;43.216;27.904;2022-07-17T08:01:33;35.55;27.35
67799;SHT30;54596;43.216;27.904;2022-07-17T08:03:59;36.52;26.06
67799;SHT30;54596;43.216;27.904;2022-07-17T08:06:24;34.61;30.93
67799;SHT30;54596;43.216;27.904;2022-07-17T08:08:50;35.04;32.84
67799;SHT30;54596;43.216;27.904;2022-07-17T08:11:15;38.06;29.10
67799;SHT30;54596;43.216;27.904;2022-07-17T08:13:41;38.25;25.75
67799;SHT30;54596;43.216;27.904;2022-07-17T08:16:06;37.02;25.06
67799;SHT30;54596;43.216;27.904;2022-07-17T08:18:32;35.53;25.93
67799;SHT30;54596;43.216;27.904;2022-07-17T08:20:58;34.99;26.34
67799;SHT30;54596;43.216;27.904;2022-07-17T08:23:23;33.99;27.73
67799;SHT30;54596;43.216;27.904;2022-07-17T08:25:49;33.20;28.97
67799;SHT30;54596;43.216;27.904;2022-07-17T08:28:14;33.16;29.68
67799;SHT30;54596;43.216;27.904;2022-07-17T08:30:40;33.37;29.74
67799;SHT30;54596;43.216;27.904;2022-07-17T08:33:08;33.14;30.08
67799;SHT30;54596;43.216;27.904;2022-07-17T08:35:34;32.51;30.31
67799;SHT30;54596;43.216;27.904;2022-07-17T08:38:00;32.14;31.25
67799;SHT30;54596;43.216;27.904;2022-07-17T08:40:28;32.40;30.90
67799;SHT30;54596;43.216;27.904;2022-07-17T08:42:55;32.45;31.34
67799;SHT30;54596;43.216;27.904;2022-07-17T08:45:21;32.21;31.87
67799;SHT30;54596;43.216;27.904;2022-07-17T08:47:47;32.28;31.77
67799;SHT30;54596;43.216;27.904;2022-07-17T08:50:14;32.64;31.36
67799;SHT30;54596;43.216;27.904;2022-07-17T08:52:40;32.14;31.54
67799;SHT30;54596;43.216;27.904;2022-07-17T08:55:13;31.99;32.36
67799;SHT30;54596;43.216;27.904;2022-07-17T08:57:41;31.58;33.17
67799;SHT30;54596;43.216;27.904;2022-07-17T09:00:09;31.73;32.43
67799;SHT30;54596;43.216;27.904;2022-07-17T09:02:39;31.85;32.23
67799;SHT30;54596;43.216;27.904;2022-07-17T09:05:05;31.86;31.91
67799;SHT30;54596;43.216;27.904;2022-07-17T09:07:32;31.61;32.00
67799;SHT30;54596;43.216;27.904;2022-07-17T09:09:58;31.72;32.35
67799;SHT30;54596;43.216;27.904;2022-07-17T09:12:28;31.71;32.13
67799;SHT30;54596;43.216;27.904;2022-07-17T09:14:55;31.69;31.66
67799;SHT30;54596;43.216;27.904;2022-07-17T09:17:21;31.57;31.71
67799;SHT30;54596;43.216;27.904;2022-07-17T09:19:48;31.65;31.23
67799;SHT30;54596;43.216;27.904;2022-07-17T09:22:23;31.72;31.31
67799;SHT30;54596;43.216;27.904;2022-07-17T09:27:31;31.65;31.02
67799;SHT30;54596;43.216;27.904;2022-07-17T09:30:09;31.41;31.08
67799;SHT30;54596;43.216;27.904;2022-07-17T09:32:36;31.45;31.47
67799;SHT30;54596;43.216;27.904;2022-07-17T09:35:04;31.66;31.59
67799;SHT30;54596;43.216;27.904;2022-07-17T09:37:30;31.86;32.06
67799;SHT30;54596;43.216;27.904;2022-07-17T09:39:57;31.97;31.45
67799;SHT30;54596;43.216;27.904;2022-07-17T09:45:08;32.33;31.00
67799;SHT30;54596;43.216;27.904;2022-07-17T09:47:36;32.44;30.99
67799;SHT30;54596;43.216;27.904;2022-07-17T09:50:04;32.41;31.00
67799;SHT30;54596;43.216;27.904;2022-07-17T09:52:33;32.16;30.96
67799;SHT30;54596;43.216;27.904;2022-07-17T09:55:00;32.13;30.94
67799;SHT30;54596;43.216;27.904;2022-07-17T09:57:29;31.93;30.77
67799;SHT30;54596;43.216;27.904;2022-07-17T09:59:56;31.93;31.21
67799;SHT30;54596;43.216;27.904;2022-07-17T10:02:23;31.94;31.12
67799;SHT30;54596;43.216;27.904;2022-07-17T10:04:51;31.90;31.22
67799;SHT30;54596;43.216;27.904;2022-07-17T10:07:17;32.13;31.21
67799;SHT30;54596;43.216;27.904;2022-07-17T10:09:44;32.16;30.58
67799;SHT30;54596;43.216;27.904;2022-07-17T10:12:10;32.03;31.27
67799;SHT30;54596;43.216;27.904;2022-07-17T10:14:36;31.82;31.09
67799;SHT30;54596;43.216;27.904;2022-07-17T10:17:11;31.68;31.53
67799;SHT30;54596;43.216;27.904;2022-07-17T10:19:56;31.62;31.97
67799;SHT30;54596;43.216;27.904;2022-07-17T10:22:23;31.78;31.28
67799;SHT30;54596;43.216;27.904;2022-07-17T10:24:56;31.83;31.54
67799;SHT30;54596;43.216;27.904;2022-07-17T10:27:29;32.13;31.83
67799;SHT30;54596;43.216;27.904;2022-07-17T10:30:09;32.24;31.77
67799;SHT30;54596;43.216;27.904;2022-07-17T10:32:37;32.00;31.71
67799;SHT30;54596;43.216;27.904;2022-07-17T10:40:06;31.11;32.60
67799;SHT30;54596;43.216;27.904;2022-07-17T10:45:18;30.92;33.23
67799;SHT30;54596;43.216;27.904;2022-07-17T10:47:46;30.87;32.40
67799;SHT30;54596;43.216;27.904;2022-07-17T10:50:12;30.80;32.14
67799;SHT30;54596;43.216;27.904;2022-07-17T10:52:38;30.72;32.58
67799;SHT30;54596;43.216;27.904;2022-07-17T10:55:05;30.82;32.38
67799;SHT30;54596;43.216;27.904;2022-07-17T10:57:32;30.80;32.35
67799;SHT30;54596;43.216;27.904;2022-07-17T10:59:57;30.80;32.27
67799;SHT30;54596;43.216;27.904;2022-07-17T11:02:30;30.86;32.29
67799;SHT30;54596;43.216;27.904;2022-07-17T11:05:14;30.72;32.29
67799;SHT30;54596;43.216;27.904;2022-07-17T11:10:16;30.75;32.51
67799;SHT30;54596;43.216;27.904;2022-07-17T11:12:42;30.92;32.34
67799;SHT30;54596;43.216;27.904;2022-07-17T11:15:07;31.00;32.53
67799;SHT30;54596;43.216;27.904;2022-07-17T11:17:33;30.97;32.26
67799;SHT30;54596;43.216;27.904;2022-07-17T11:19:58;31.06;32.11
67799;SHT30;54596;43.216;27.904;2022-07-17T11:22:25;31.23;32.61
67799;SHT30;54596;43.216;27.904;2022-07-17T11:24:52;31.37;33.68
67799;SHT30;54596;43.216;27.904;2022-07-17T11:27:29;31.55;32.22
67799;SHT30;54596;43.216;27.904;2022-07-17T11:29:57;31.59;32.03
67799;SHT30;54596;43.216;27.904;2022-07-17T11:32:23;31.64;32.37
67799;SHT30;54596;43.216;27.904;2022-07-17T11:34:50;31.55;32.01
67799;SHT30;54596;43.216;27.904;2022-07-17T11:37:16;30.90;44.45
67799;SHT30;54596;43.216;27.904;2022-07-17T11:39:43;30.34;49.79
67799;SHT30;54596;43.216;27.904;2022-07-17T11:42:11;30.02;50.11
67799;SHT30;54596;43.216;27.904;2022-07-17T11:44:37;29.85;50.30
67799;SHT30;54596;43.216;27.904;2022-07-17T11:47:03;29.50;52.04
67799;SHT30;54596;43.216;27.904;2022-07-17T11:49:34;28.93;51.84
67799;SHT30;54596;43.216;27.904;2022-07-17T11:52:09;28.71;52.56
67799;SHT30;54596;43.216;27.904;2022-07-17T11:54:46;28.57;52.70
67799;SHT30;54596;43.216;27.904;2022-07-17T11:57:13;28.61;52.58
67799;SHT30;54596;43.216;27.904;2022-07-17T11:59:39;28.20;53.39
67799;SHT30;54596;43.216;27.904;2022-07-17T12:02:10;28.10;53.51
67799;SHT30;54596;43.216;27.904;2022-07-17T12:04:36;28.05;53.63
67799;SHT30;54596;43.216;27.904;2022-07-17T12:07:03;28.03;54.26
67799;SHT30;54596;43.216;27.904;2022-07-17T12:09:32;27.93;55.06
67799;SHT30;54596;43.216;27.904;2022-07-17T12:12:01;28.02;56.01
67799;SHT30;54596;43.216;27.904;2022-07-17T12:14:27;28.02;55.69
67799;SHT30;54596;43.216;27.904;2022-07-17T12:17:02;28.14;55.14
67799;SHT30;54596;43.216;27.904;2022-07-17T12:19:29;28.30;54.22
67799;SHT30;54596;43.216;27.904;2022-07-17T12:22:04;28.27;54.18
67799;SHT30;54596;43.216;27.904;2022-07-17T12:24:37;28.02;53.82
67799;SHT30;54596;43.216;27.904;2022-07-17T12:27:11;28.00;54.20
67799;SHT30;54596;43.216;27.904;2022-07-17T12:29:37;27.84;54.86
67799;SHT30;54596;43.216;27.904;2022-07-17T12:32:14;27.75;55.25
67799;SHT30;54596;43.216;27.904;2022-07-17T12:34:49;27.88;55.34
67799;SHT30;54596;43.216;27.904;2022-07-17T12:37:19;28.21;55.38
67799;SHT30;54596;43.216;27.904;2022-07-17T12:39:46;28.38;55.23
67799;SHT30;54596;43.216;27.904;2022-07-17T12:42:13;28.25;55.88
67799;SHT30;54596;43.216;27.904;2022-07-17T12:44:38;27.93;56.10
67799;SHT30;54596;43.216;27.904;2022-07-17T12:47:04;27.93;56.38
67799;SHT30;54596;43.216;27.904;2022-07-17T12:49:30;27.82;56.59
67799;SHT30;54596;43.216;27.904;2022-07-17T12:51:56;27.68;56.52
67799;SHT30;54596;43.216;27.904;2022-07-17T12:54:22;27.62;56.30
67799;SHT30;54596;43.216;27.904;2022-07-17T12:56:49;27.72;57.45
67799;SHT30;54596;43.216;27.904;2022-07-17T12:59:15;27.77;56.81
67799;SHT30;54596;43.216;27.904;2022-07-17T13:01:40;27.73;58.14
67799;SHT30;54596;43.216;27.904;2022-07-17T13:04:06;27.68;57.88
67799;SHT30;54596;43.216;27.904;2022-07-17T13:06:31;27.61;58.17
67799;SHT30;54596;43.216;27.904;2022-07-17T13:09:00;27.65;56.70
67799;SHT30;54596;43.216;27.904;2022-07-17T13:11:26;27.61;56.09
67799;SHT30;54596;43.216;27.904;2022-07-17T13:13:52;27.62;56.28
67799;SHT30;54596;43.216;27.904;2022-07-17T13:16:18;27.35;57.00
67799;SHT30;54596;43.216;27.904;2022-07-17T13:18:43;27.38;57.58
67799;SHT30;54596;43.216;27.904;2022-07-17T13:21:09;27.41;56.93
67799;SHT30;54596;43.216;27.904;2022-07-17T13:23:35;27.47;56.52
67799;SHT30;54596;43.216;27.904;2022-07-17T13:26:03;27.50;56.51
67799;SHT30;54596;43.216;27.904;2022-07-17T13:28:28;27.47;57.23
67799;SHT30;54596;43.216;27.904;2022-07-17T13:30:54;27.31;58.39
67799;SHT30;54596;43.216;27.904;2022-07-17T13:33:20;27.24;57.87
67799;SHT30;54596;43.216;27.904;2022-07-17T13:35:46;27.18;58.53
67799;SHT30;54596;43.216;27.904;2022-07-17T13:38:12;27.23;59.13
67799;SHT30;54596;43.216;27.904;2022-07-17T13:40:37;27.33;58.78
67799;SHT30;54596;43.216;27.904;2022-07-17T13:43:03;27.18;58.80
67799;SHT30;54596;43.216;27.904;2022-07-17T13:45:30;27.06;59.06
67799;SHT30;54596;43.216;27.904;2022-07-17T13:47:56;26.99;59.30
67799;SHT30;54596;43.216;27.904;2022-07-17T13:50:22;27.03;58.88
67799;SHT30;54596;43.216;27.904;2022-07-17T13:52:47;27.09;59.18
67799;SHT30;54596;43.216;27.904;2022-07-17T13:55:13;27.13;58.51
67799;SHT30;54596;43.216;27.904;2022-07-17T13:57:40;27.09;58.40
67799;SHT30;54596;43.216;27.904;2022-07-17T14:00:06;26.93;57.96
67799;SHT30;54596;43.216;27.904;2022-07-17T14:02:34;26.81;58.17
67799;SHT30;54596;43.216;27.904;2022-07-17T14:05:00;26.79;58.21
67799;SHT30;54596;43.216;27.904;2022-07-17T14:07:25;26.75;58.61
67799;SHT30;54596;43.216;27.904;2022-07-17T14:09:51;26.75;57.72
67799;SHT30;54596;43.216;27.904;2022-07-17T14:12:16;26.75;56.36
67799;SHT30;54596;43.216;27.904;2022-07-17T14:14:42;26.62;56.32
67799;SHT30;54596;43.216;27.904;2022-07-17T14:17:07;26.58;57.14
67799;SHT30;54596;43.216;27.904;2022-07-17T14:19:33;26.54;57.93
67799;SHT30;54596;43.216;27.904;2022-07-17T14:22:00;26.45;58.78
67799;SHT30;54596;43.216;27.904;2022-07-17T14:24:26;26.43;59.16
67799;SHT30;54596;43.216;27.904;2022-07-17T14:26:51;26.54;59.00
67799;SHT30;54596;43.216;27.904;2022-07-17T14:29:17;26.62;59.28
67799;SHT30;54596;43.216;27.904;2022-07-17T14:31:43;26.69;59.12
67799;SHT30;54596;43.216;27.904;2022-07-17T14:34:08;26.88;57.63
67799;SHT30;54596;43.216;27.904;2022-07-17T14:36:34;26.95;57.16
67799;SHT30;54596;43.216;27.904;2022-07-17T14:38:59;26.95;56.12
67799;SHT30;54596;43.216;27.904;2022-07-17T14:41:25;27.02;56.40
67799;SHT30;54596;43.216;27.904;2022-07-17T14:43:52;26.96;56.97
67799;SHT30;54596;43.216;27.904;2022-07-17T14:46:17;27.04;57.22
67799;SHT30;54596;43.216;27.904;2022-07-17T14:48:43;27.13;57.29
67799;SHT30;54596;43.216;27.904;2022-07-17T14:51:09;27.03;56.24
67799;SHT30;54596;43.216;27.904;2022-07-17T14:53:34;27.07;57.11
67799;SHT30;54596;43.216;27.904;2022-07-17T14:56:00;26.91;54.53
67799;SHT30;54596;43.216;27.904;2022-07-17T14:58:26;26.79;56.37
67799;SHT30;54596;43.216;27.904;2022-07-17T15:00:51;26.76;56.34
67799;SHT30;54596;43.216;27.904;2022-07-17T15:03:17;26.68;56.96
67799;SHT30;54596;43.216;27.904;2022-07-17T15:05:42;26.57;57.28
67799;SHT30;54596;43.216;27.904;2022-07-17T15:08:08;26.55;57.40
67799;SHT30;54596;43.216;27.904;2022-07-17T15:10:33;26.41;57.72
67799;SHT30;54596;43.216;27.904;2022-07-17T15:12:59;26.33;58.55
67799;SHT30;54596;43.216;27.904;2022-07-17T15:15:25;26.31;58.75
67799;SHT30;54596;43.216;27.904;2022-07-17T15:17:51;26.33;59.06
67799;SHT30;54596;43.216;27.904;2022-07-17T15:20:16;26.29;59.86
67799;SHT30;54596;43.216;27.904;2022-07-17T15:22:42;26.24;59.80
67799;SHT30;54596;43.216;27.904;2022-07-17T15:25:08;26.17;59.06